Weather reports worldwide

Advertisment
Fair Isle, United Kingdom (3008): temperature: 16.07.2019 20:00:00 - 22.07.2019 20:00:00 (BST)Fair Isle, United Kingdom (3008): temperature -20cm & temperature -100cm: 16.07.2019 20:00:00 - 22.07.2019 20:00:00 (BST)Fair Isle, United Kingdom (3008): wind speed & gusts: 16.07.2019 20:00:00 - 22.07.2019 20:00:00 (BST)Fair Isle, United Kingdom (3008): wind direction: 16.07.2019 20:00:00 - 22.07.2019 20:00:00 (BST)Fair Isle, United Kingdom (3008): reduced air pressure: 16.07.2019 20:00:00 - 22.07.2019 20:00:00 (BST)Fair Isle, United Kingdom (3008): visibility: 16.07.2019 20:00:00 - 22.07.2019 20:00:00 (BST)Fair Isle, United Kingdom (3008): precipitation: 16.07.2019 20:00:00 - 22.07.2019 20:00:00 (BST)
Date & Time tt [°C] tt -20cm [°C] tt -100cm [°C] ff [km/h] ff [kn] fx [km/h] fx [kn] dd ppp [hPa] vv [km] rr [mm]
22.07.2019 20:00:00 14,1 - - 9 5 - - SSW 1009,2 13 -
22.07.2019 19:00:00 14,3 - - 11 6 - - S 1008,9 18 0,0
22.07.2019 18:00:00 14,4 - - 9 5 - - SSW 1008,3 16 0,0
22.07.2019 17:00:00 15,2 - - 11 6 - - SW 1007,6 16 0,0
22.07.2019 16:00:00 15,2 - - 13 7 - - WSW 1007,2 15 0,0
22.07.2019 15:00:00 15,2 - - 11 6 - - SW 1006,6 13 0,0
22.07.2019 14:00:00 14,6 - - 11 6 - - WSW 1006,5 12 0,0
22.07.2019 13:00:00 13,9 - - 9 5 - - SW 1005,9 6 0,2
22.07.2019 12:00:00 12,7 - - 13 7 - - S 1005,8 0,3 0,0
22.07.2019 11:00:00 12,7 - - 15 8 - - S 1005,4 0,2 0,0
22.07.2019 10:00:00 12,6 14,0 12,0 22 12 - - S 1005,1 0,1 0,0
22.07.2019 09:00:00 12,3 - - 21 11 - - S 1004,7 0,1 0,0
22.07.2019 08:00:00 12,4 - - 24 13 - - S 1004,1 0,1 0,2
22.07.2019 07:00:00 12,5 - - 31 17 46 25 S 1004,2 3,2 0,0
22.07.2019 06:00:00 12,5 - - 31 17 - - SSE 1004,3 5 0,0
22.07.2019 05:00:00 12,6 - - 29 16 - - S 1004,4 7 0,0
22.07.2019 04:00:00 12,9 - - 29 16 - - S 1004,6 7 0,0
22.07.2019 03:00:00 12,7 - - 26 14 - - S 1004,9 7 0,0
22.07.2019 02:00:00 12,6 - - 24 13 - - SSE 1005,5 8 0,0
22.07.2019 01:00:00 12,7 - - 31 17 46 25 SSE 1006,2 9 0,0
22.07.2019 00:00:00 12,6 - - 26 14 - - SE 1007,0 12 0,0
21.07.2019 23:00:00 12,5 - - 24 13 - - SE 1007,7 13 0,0
21.07.2019 22:00:00 12,6 - - 24 13 - - SE 1008,4 13 0,0
21.07.2019 21:00:00 12,6 - - 24 13 - - SE 1009,0 14 0,0
21.07.2019 20:00:00 12,7 - - 13 7 - - SE 1009,5 24 0,0
21.07.2019 19:00:00 12,5 - - 16 9 - - SE 1010,4 35 0,0
21.07.2019 18:00:00 12,6 - - 9 5 - - ESE 1010,8 30 0,0
21.07.2019 17:00:00 13,4 - - 11 6 - - SE 1011,3 30 0,0
21.07.2019 16:00:00 14,7 - - 18 10 - - S 1011,4 30 0,0
21.07.2019 15:00:00 14,9 - - 18 10 - - S 1011,6 35 0,0
21.07.2019 14:00:00 14,8 - - 18 10 - - SSW 1011,3 30 0,0
21.07.2019 13:00:00 14,6 - - 18 10 - - SSW 1011,1 35 0,0
21.07.2019 12:00:00 14,0 - - 21 11 - - SW 1010,8 35 0,0
21.07.2019 11:00:00 13,2 - - 18 10 - - SW 1010,5 24 0,0
21.07.2019 10:00:00 13,3 13,7 11,9 18 10 - - SW 1009,8 29 0,0
21.07.2019 09:00:00 13,0 - - 16 9 - - SW 1009,3 21 0,0
21.07.2019 08:00:00 12,1 - - 16 9 - - SW 1008,9 19 0,0
21.07.2019 07:00:00 11,8 - - 16 9 - - SW 1008,5 9 0,0
21.07.2019 06:00:00 11,7 - - 21 11 - - SW 1008,0 15 0,0
21.07.2019 05:00:00 11,9 - - 24 13 - - WSW 1007,7 11 0,0
21.07.2019 04:00:00 11,6 - - 16 9 - - WSW 1007,4 6 0,0
21.07.2019 03:00:00 11,5 - - 18 10 - - W 1006,9 5 0,0
21.07.2019 02:00:00 11,4 - - 16 9 - - W 1006,5 12 0,0
21.07.2019 01:00:00 11,4 - - 22 12 - - W 1006,1 7 0,0
21.07.2019 00:00:00 11,5 - - 24 13 - - W 1005,7 5 0,0
20.07.2019 23:00:00 11,7 - - 26 14 - - W 1005,0 13 0,0
20.07.2019 22:00:00 11,9 - - 26 14 48 26 W 1004,5 13 0,0
20.07.2019 21:00:00 11,8 - - 22 12 - - W 1003,4 2,1 0,0
20.07.2019 20:00:00 12,0 - - 26 14 - - WNW 1002,4 0,2 0,0
20.07.2019 19:00:00 12,1 - - 21 11 - - W 1001,8 0,1 0,0
20.07.2019 18:00:00 12,2 - - 15 8 - - W 1001,3 0,4 0,0
20.07.2019 17:00:00 12,7 - - 11 6 - - SW 1000,9 0,1 0,0
20.07.2019 16:00:00 13,1 - - 13 7 - - S 1000,5 0,1 0,0
20.07.2019 15:00:00 13,4 - - 15 8 - - S 1000,1 0,1 0,0
20.07.2019 14:00:00 12,8 - - 9 5 - - SE 1000,0 0,1 0,0
20.07.2019 13:00:00 12,8 - - 9 5 - - ESE 999,6 - 0,0
20.07.2019 12:00:00 13,0 - - 13 7 - - ESE 999,4 - 0,0
20.07.2019 11:00:00 12,8 - - 21 11 - - ESE 999,5 - 0,6
20.07.2019 10:00:00 12,9 13,9 11,7 22 12 - - E 1000,0 7 10,0
20.07.2019 09:00:00 12,3 - - 21 11 - - E 1000,6 0,3 1,8
20.07.2019 08:00:00 12,5 - - 18 10 - - E 1001,4 2,6 0,2
20.07.2019 07:00:00 12,7 - - 22 12 - - E 1002,0 8 0,2
20.07.2019 06:00:00 13,1 - - 26 14 - - E 1002,5 9 0,2
20.07.2019 05:00:00 12,5 - - 18 10 - - ESE 1002,9 1,5 0,0
20.07.2019 04:00:00 12,7 - - 16 9 - - ESE 1003,2 1,8 0,0
20.07.2019 03:00:00 12,6 - - 15 8 - - ESE 1003,7 3,1 0,0
20.07.2019 02:00:00 12,0 - - 9 5 - - SE 1004,1 1,9 0,0
20.07.2019 01:00:00 12,2 - - 11 6 - - SE 1004,5 2,5 0,0
20.07.2019 00:00:00 12,1 - - 9 5 - - SE 1004,5 2,0 0,0
19.07.2019 23:00:00 12,3 - - 15 8 - - SE 1004,7 3,1 0,0
19.07.2019 22:00:00 12,3 - - 15 8 - - SE 1004,8 6 0,0
19.07.2019 21:00:00 12,4 - - 11 6 - - SE 1004,8 6 0,0
19.07.2019 20:00:00 12,4 - - 9 5 - - SE 1004,9 10 0,0
19.07.2019 19:00:00 12,6 - - 11 6 - - SE 1004,9 12 0,0
19.07.2019 18:00:00 13,0 - - 13 7 - - SE 1005,0 11 0,0
19.07.2019 17:00:00 13,6 - - 16 9 - - SSE 1005,2 13 0,0
19.07.2019 16:00:00 13,2 - - 15 8 - - SE 1005,4 11 0,0
19.07.2019 15:00:00 13,8 - - 15 8 - - SE 1005,2 13 0,0
19.07.2019 14:00:00 14,0 - - 13 7 - - SE 1005,2 14 0,0
19.07.2019 13:00:00 14,4 - - 18 10 - - S 1005,0 24 0,0
19.07.2019 12:00:00 13,5 - - 18 10 - - S 1004,9 26 0,0
19.07.2019 11:00:00 13,2 - - 22 12 - - S 1004,6 25 0,0
19.07.2019 10:00:00 13,2 13,7 11,7 18 10 - - SSE 1004,4 21 0,0
19.07.2019 09:00:00 13,0 - - 22 12 - - SSE 1004,2 25 0,0
19.07.2019 08:00:00 12,3 - - 15 8 - - S 1003,9 23 0,0
19.07.2019 07:00:00 11,6 - - 11 6 - - SSE 1003,8 21 0,0
19.07.2019 06:00:00 11,4 - - 11 6 - - S 1003,7 40 0,0
19.07.2019 05:00:00 11,2 - - 9 5 - - S 1003,5 9 0,0
19.07.2019 04:00:00 10,6 - - 11 6 - - SSW 1003,4 1,0 0,0
19.07.2019 03:00:00 11,0 - - 11 6 - - SSW 1003,2 12 0,0
19.07.2019 02:00:00 11,3 - - 5 3 - - SSW 1003,1 13 0,0
19.07.2019 01:00:00 11,7 - - 9 5 - - SW 1002,8 14 0,0
19.07.2019 00:00:00 11,8 - - 13 7 - - SSW 1002,5 9 0,0
18.07.2019 23:00:00 12,1 - - 13 7 - - S 1002,4 16 0,0
18.07.2019 22:00:00 11,5 - - 9 5 - - SSE 1002,2 12 0,0
18.07.2019 21:00:00 11,9 - - 11 6 - - SSE 1002,0 11 0,0
18.07.2019 20:00:00 12,5 - - 15 8 - - SSE 1002,0 18 0,0
18.07.2019 19:00:00 13,1 - - 15 8 - - S 1001,6 20 0,0
18.07.2019 18:00:00 13,7 - - 18 10 - - S 1001,5 40 0,0
18.07.2019 17:00:00 13,2 - - 16 9 - - S 1001,5 20 0,0
18.07.2019 16:00:00 14,2 - - 15 8 - - S 1001,3 21 0,0
18.07.2019 15:00:00 14,0 - - 18 10 - - S 1001,4 22 0,0
18.07.2019 14:00:00 14,2 - - 15 8 - - S 1001,3 26 0,0
18.07.2019 13:00:00 14,5 - - 13 7 - - S 1001,2 0,4 0,0
18.07.2019 12:00:00 13,5 - - 11 6 - - S 1001,4 1,1 0,0
18.07.2019 11:00:00 12,3 - - 11 6 - - SW 1001,1 0,6 0,0
18.07.2019 10:00:00 12,7 13,2 11,7 11 6 - - SSW 1000,9 0,8 0,0
18.07.2019 09:00:00 12,0 - - 8 4 - - S 1001,1 0,3 0,0
18.07.2019 08:00:00 11,8 - - 8 4 - - SW 1001,1 8 0,0
18.07.2019 07:00:00 11,1 - - 4 2 - - S 1001,1 0,1 1,2
18.07.2019 06:00:00 11,2 - - 2 1 - - WSW 1001,1 0,1 0,0
18.07.2019 05:00:00 11,6 - - 4 2 - - NNW 1001,2 0,1 0,0
18.07.2019 04:00:00 11,8 - - 13 7 - - NW 1000,9 4,8 0,0
18.07.2019 03:00:00 11,7 - - 16 9 - - WNW 1001,7 22 0,6
18.07.2019 02:00:00 11,9 - - 18 10 - - S 1002,1 0,2 1,8
18.07.2019 01:00:00 12,0 - - 22 12 - - SSE 1002,3 1,5 0,8
18.07.2019 00:00:00 12,1 - - 21 11 - - SSE 1002,6 3,0 0,0
17.07.2019 23:00:00 12,4 - - 22 12 - - SSE 1002,9 5 0,0
17.07.2019 22:00:00 12,4 - - 22 12 - - SSE 1003,2 2,5 0,0
17.07.2019 21:00:00 12,5 - - 24 13 - - SSE 1003,5 5 0,0
17.07.2019 20:00:00 12,4 - - 24 13 - - SSE 1004,0 5 0,0
17.07.2019 19:00:00 12,2 - - 16 9 - - SE 1004,3 1,4 0,6
17.07.2019 18:00:00 12,5 - - 16 9 - - SSE 1005,0 0,8 0,6
17.07.2019 17:00:00 12,6 - - 22 12 - - SSE 1005,5 8 0,0
17.07.2019 16:00:00 13,1 - - 24 13 - - SSE 1005,9 9 0,0
17.07.2019 15:00:00 12,8 - - 22 12 - - SSE 1006,3 8 0,0
17.07.2019 14:00:00 12,3 - - 15 8 - - SE 1006,9 0,1 0,0
17.07.2019 13:00:00 12,3 - - 21 11 - - SE 1007,4 - 0,0
17.07.2019 12:00:00 12,0 - - 24 13 - - SE 1008,2 - 0,0
17.07.2019 11:00:00 11,9 - - 15 8 - - ESE 1008,6 - 0,0
17.07.2019 10:00:00 11,8 13,2 11,5 13 7 - - E 1009,5 - 0,0
17.07.2019 09:00:00 11,8 - - 13 7 - - ESE 1010,1 - 0,0
17.07.2019 08:00:00 11,8 - - 15 8 - - ESE 1010,6 - 0,0
17.07.2019 07:00:00 11,6 - - 16 9 - - ESE 1011,2 - 0,2
17.07.2019 06:00:00 11,4 - - 11 6 - - ESE 1011,3 - 0,0
17.07.2019 05:00:00 11,3 - - 9 5 - - ESE 1011,9 - 0,0
17.07.2019 04:00:00 11,5 - - 11 6 - - SSE 1012,5 0,1 0,0
17.07.2019 03:00:00 11,6 - - 8 4 - - ESE 1012,8 - 0,0
17.07.2019 02:00:00 11,6 - - 13 7 - - S 1013,8 0,1 0,0
17.07.2019 01:00:00 11,7 - - 11 6 - - SSE 1014,0 0,2 0,0
17.07.2019 00:00:00 11,9 - - 9 5 - - SE 1014,1 0,1 0,0
16.07.2019 23:00:00 11,8 - - 8 4 - - SE 1014,5 - 0,0
16.07.2019 22:00:00 12,0 - - 9 5 - - SE 1014,8 - 0,0
16.07.2019 21:00:00 12,1 - - 9 5 - - SSE 1014,9 0,1 0,0
16.07.2019 20:00:00 12,4 - - 8 4 - - SSE 1015,1 0,1 0,0

tt = temperature
tt -20cm = temperature -20cm
tt -100cm = temperature -100cm
ff = wind speed
fx = gusts
dd = wind direction
ppp = reduced air pressure
vv = visibility
rr = precipitation

Next stations